Time;durP1;ratioP1;P1;durP2;ratioP2;P2;SDS_P1;SDS_P2;PMS_P1;PMS_P2;Temp;Humidity;BMP_temperature;BMP_pressure;BME280_temperature;BME280_humidity;BME280_pressure;Samples;Min_cycle;Max_cycle;Signal;HPM_P1;HPM_P2
2023/06/05 00:00:00;;;;;;;3.25;2.35;;;;;;;7.08;100.00;98989.88;4157897;28;20046;-69
2023/06/05 00:02:01;;;;;;;4.80;2.33;;;;;;;7.00;100.00;98986.06;4157665;28;20048;-69
2023/06/05 00:04:01;;;;;;;3.22;2.20;;;;;;;7.00;100.00;98986.06;4156172;28;20045;-70
2023/06/05 00:06:01;;;;;;;4.10;2.63;;;;;;;6.92;100.00;98986.97;4158142;28;20033;-70
2023/06/05 00:08:02;;;;;;;3.63;2.40;;;;;;;6.93;100.00;98986.63;4157286;28;20128;-69
2023/06/05 00:10:02;;;;;;;4.47;2.00;;;;;;;6.95;100.00;98983.53;4157298;28;20109;-69
2023/06/05 00:12:03;;;;;;;3.50;2.30;;;;;;;6.95;100.00;98989.03;4158423;28;20492;-70
2023/06/05 00:14:03;;;;;;;6.90;2.70;;;;;;;6.85;100.00;98975.72;4156691;28;20017;-70
2023/06/05 00:16:03;;;;;;;3.35;2.13;;;;;;;6.80;100.00;98984.22;4157436;28;20091;-69
2023/06/05 00:18:04;;;;;;;5.10;2.38;;;;;;;6.73;100.00;98987.50;4157388;28;20127;-70
2023/06/05 00:20:09;;;;;;;3.30;2.08;;;;;;;6.66;100.00;98977.06;4157630;28;20033;-69
2023/06/05 00:22:09;;;;;;;3.42;2.40;;;;;;;6.62;100.00;98980.81;4157375;28;20045;-69
2023/06/05 00:24:10;;;;;;;4.38;2.17;;;;;;;6.58;100.00;98979.91;4156894;28;20499;-69
2023/06/05 00:26:10;;;;;;;5.00;2.35;;;;;;;6.55;100.00;98977.84;4157469;28;20029;-69
2023/06/05 00:28:10;;;;;;;6.03;2.35;;;;;;;6.52;100.00;98973.00;4157161;28;20069;-69
2023/06/05 00:30:11;;;;;;;3.17;2.05;;;;;;;6.44;100.00;98972.75;4157592;28;20040;-69
2023/06/05 00:32:12;;;;;;;3.45;2.10;;;;;;;6.44;100.00;98980.19;4157349;28;20034;-69
2023/06/05 00:34:13;;;;;;;3.05;2.13;;;;;;;6.38;100.00;98976.06;4156987;28;20037;-69
2023/06/05 00:36:13;;;;;;;4.28;2.20;;;;;;;6.37;100.00;98982.69;4157107;28;20041;-69
2023/06/05 00:38:14;;;;;;;3.97;2.20;;;;;;;6.40;100.00;98987.53;4157367;28;20033;-69
2023/06/05 00:40:15;;;;;;;2.45;1.92;;;;;;;6.44;100.00;98982.94;4157509;28;20037;-69
2023/06/05 00:42:15;;;;;;;3.10;2.08;;;;;;;6.50;100.00;98980.78;4157576;28;20378;-69
2023/06/05 00:44:18;;;;;;;3.63;2.08;;;;;;;6.53;100.00;98971.88;4156978;28;20417;-69
2023/06/05 00:46:18;;;;;;;;;;;;;;;6.47;100.00;98977.59;4157604;28;20141;-69
2023/06/05 00:48:19;;;;;;;3.78;2.70;;;;;;;6.46;100.00;98976.00;4158169;28;20850;-69
2023/06/05 00:50:21;;;;;;;3.55;2.38;;;;;;;6.44;100.00;98981.00;4159725;28;20480;-69
2023/06/05 00:52:22;;;;;;;4.38;2.08;;;;;;;6.40;100.00;98971.84;4159908;28;20057;-69
2023/06/05 00:54:23;;;;;;;6.07;2.40;;;;;;;6.34;100.00;98978.69;4160087;28;20239;-69
2023/06/05 00:56:23;;;;;;;2.92;2.13;;;;;;;6.27;100.00;98972.91;4160522;28;20496;-69
2023/06/05 00:58:25;;;;;;;2.92;2.10;;;;;;;6.22;100.00;98975.09;4160206;28;20057;-69
2023/06/05 01:00:26;;;;;;;4.15;2.30;;;;;;;6.17;100.00;98971.41;4160455;28;20076;-69
2023/06/05 01:02:27;;;;;;;3.28;2.10;;;;;;;6.12;100.00;98968.88;4159629;28;20046;-69
2023/06/05 01:04:32;;;;;;;3.13;2.13;;;;;;;6.10;100.00;98971.13;4159737;28;20115;-69
2023/06/05 01:06:34;;;;;;;3.80;1.98;;;;;;;6.08;100.00;98969.88;4160231;28;20119;-69
2023/06/05 01:08:39;;;;;;;3.20;2.08;;;;;;;6.00;100.00;98971.53;4160197;28;20120;-69
2023/06/05 01:10:39;;;;;;;5.68;2.50;;;;;;;6.01;100.00;98972.34;4159220;28;20078;-69
2023/06/05 01:12:59;;;;;;;3.35;2.85;;;;;;;6.06;100.00;98961.16;4159634;28;20111;-69
2023/06/05 01:15:02;;;;;;;3.03;2.20;;;;;;;6.04;100.00;98961.50;4159868;28;20091;-69
2023/06/05 01:17:04;;;;;;;3.38;2.35;;;;;;;6.02;100.00;98963.75;4159924;28;20523;-69
2023/06/05 01:19:06;;;;;;;4.38;2.47;;;;;;;5.99;100.00;98966.41;4159786;28;20045;-69
2023/06/05 01:21:13;;;;;;;4.03;2.28;;;;;;;5.92;100.00;98969.66;4160207;28;20041;-69
2023/06/05 01:23:13;;;;;;;4.25;1.92;;;;;;;5.87;100.00;98964.34;4159681;28;20037;-69
2023/06/05 01:25:14;;;;;;;5.75;2.50;;;;;;;5.86;100.00;98966.28;4159828;28;20094;-69
2023/06/05 01:27:16;;;;;;;2.83;2.30;;;;;;;5.83;100.00;98972.47;4159710;28;20053;-69
2023/06/05 01:29:16;;;;;;;2.97;2.10;;;;;;;5.80;100.00;98977.81;4159796;28;20048;-69
2023/06/05 01:31:20;;;;;;;3.33;2.35;;;;;;;5.78;100.00;98974.59;4161075;28;20397;-69
2023/06/05 01:33:49;;;;;;;2.75;2.25;;;;;;;5.73;100.00;98970.13;4158783;28;20041;-69
2023/06/05 01:35:51;;;;;;;2.90;2.20;;;;;;;5.72;100.00;98981.44;4158716;28;20046;-69
2023/06/05 01:37:52;;;;;;;6.40;2.40;;;;;;;5.68;100.00;98985.97;4159299;28;20132;-69
2023/06/05 01:39:55;;;;;;;5.90;2.80;;;;;;;5.75;100.00;98983.50;4160009;28;20072;-69
2023/06/05 01:41:58;;;;;;;2.85;2.25;;;;;;;5.79;100.00;98976.19;4159392;28;20782;-69
2023/06/05 01:44:00;;;;;;;3.03;2.30;;;;;;;5.71;100.00;98979.81;4159472;28;20562;-69
2023/06/05 01:46:01;;;;;;;5.40;2.53;;;;;;;5.64;100.00;98975.66;4158966;28;20478;-69
2023/06/05 01:48:03;;;;;;;3.10;2.17;;;;;;;5.58;100.00;98967.94;4158974;28;20099;-70
2023/06/05 01:50:05;;;;;;;3.03;2.25;;;;;;;5.53;100.00;98973.63;4159491;28;20128;-69
2023/06/05 01:52:07;;;;;;;;;;;;;;;5.49;100.00;98976.25;4160583;28;20037;-69
2023/06/05 01:54:07;;;;;;;5.82;2.60;;;;;;;5.48;100.00;98971.91;4158841;28;19909;-69
2023/06/05 01:56:08;;;;;;;3.38;2.47;;;;;;;5.47;100.00;98980.47;4158971;28;20215;-69
2023/06/05 01:58:09;;;;;;;4.05;2.20;;;;;;;5.49;100.00;98973.50;4159133;28;20442;-69
2023/06/05 02:00:13;;;;;;;2.83;2.20;;;;;;;5.49;100.00;98970.75;4158099;28;20065;-69
2023/06/05 02:02:14;;;;;;;3.80;2.47;;;;;;;5.45;100.00;98964.31;4159287;28;20465;-69
2023/06/05 02:04:18;;;;;;;3.10;2.03;;;;;;;5.42;100.00;98966.91;4158863;28;20244;-69
2023/06/05 02:06:18;;;;;;;3.53;2.50;;;;;;;5.36;100.00;98955.31;4158342;28;20029;-69
2023/06/05 02:08:22;;;;;;;2.70;2.05;;;;;;;5.33;100.00;98961.50;4159375;28;20389;-69
2023/06/05 02:10:23;;;;;;;4.68;2.38;;;;;;;5.27;100.00;98955.38;4158390;28;20132;-69
2023/06/05 02:12:26;;;;;;;3.33;2.30;;;;;;;5.26;100.00;98953.78;4159259;28;20119;-69
2023/06/05 02:14:26;;;;;;;3.22;2.15;;;;;;;5.28;100.00;98956.19;4158358;28;20111;-69
2023/06/05 02:16:27;;;;;;;3.50;2.20;;;;;;;5.35;100.00;98965.50;4159716;28;20037;-69
2023/06/05 02:18:29;;;;;;;6.05;2.95;;;;;;;5.38;100.00;98963.22;4159135;28;20520;-69
2023/06/05 02:20:31;;;;;;;4.68;2.50;;;;;;;5.38;100.00;98957.72;4159174;28;20107;-69
2023/06/05 02:22:31;;;;;;;3.72;2.10;;;;;;;5.34;100.00;98960.34;4158578;28;20037;-69
2023/06/05 02:24:31;;;;;;;4.00;2.63;;;;;;;5.27;100.00;98958.13;4159672;28;21052;-69
2023/06/05 02:26:32;;;;;;;15.35;4.47;;;;;;;5.19;100.00;98964.44;4158876;28;20052;-69
2023/06/05 02:28:32;;;;;;;4.85;2.65;;;;;;;5.11;100.00;98964.50;4158749;28;21540;-69
2023/06/05 02:30:32;;;;;;;4.40;2.53;;;;;;;5.09;100.00;98959.34;4159301;28;20482;-69
2023/06/05 02:32:33;;;;;;;4.05;2.63;;;;;;;5.04;100.00;98954.84;4157064;28;20034;-69
2023/06/05 02:34:33;;;;;;;4.28;2.40;;;;;;;4.99;100.00;98946.81;4158787;28;20049;-69
2023/06/05 02:36:35;;;;;;;3.45;2.10;;;;;;;5.00;100.00;98945.69;4158440;28;20068;-69
2023/06/05 02:38:35;;;;;;;4.20;2.00;;;;;;;5.00;100.00;98950.34;4159134;28;20049;-69
2023/06/05 02:40:36;;;;;;;4.78;2.35;;;;;;;4.98;100.00;98950.69;4158691;28;20037;-69
2023/06/05 02:42:37;;;;;;;4.13;2.28;;;;;;;4.98;100.00;98952.63;4158395;28;20347;-69
2023/06/05 02:44:37;;;;;;;3.88;2.20;;;;;;;4.93;100.00;98944.56;4158374;28;20049;-69
2023/06/05 02:46:37;;;;;;;3.28;2.70;;;;;;;4.89;100.00;98949.13;4158594;28;20033;-69
2023/06/05 02:48:38;;;;;;;3.88;2.25;;;;;;;4.84;100.00;98947.34;4158272;28;20073;-69
2023/06/05 02:50:38;;;;;;;2.88;2.00;;;;;;;4.89;100.00;98949.94;4158619;28;20304;-69
2023/06/05 02:52:39;;;;;;;4.05;2.20;;;;;;;4.95;100.00;98956.81;4158159;28;20053;-69
2023/06/05 02:54:40;;;;;;;7.60;2.40;;;;;;;5.01;100.00;98951.97;4158624;28;20480;-69
2023/06/05 02:56:40;;;;;;;6.18;2.10;;;;;;;4.98;100.00;98949.88;4158311;28;20041;-69
2023/06/05 02:58:43;;;;;;;3.70;2.42;;;;;;;4.94;100.00;98949.72;4158127;28;20053;-69
2023/06/05 03:00:44;;;;;;;4.30;2.92;;;;;;;4.89;100.00;98947.19;4158776;28;20474;-69
2023/06/05 03:02:48;;;;;;;4.53;2.20;;;;;;;4.88;100.00;98944.75;4158124;28;20033;-69
2023/06/05 03:04:53;;;;;;;4.07;2.38;;;;;;;4.80;100.00;98954.66;4158429;28;20425;-69
2023/06/05 03:06:56;;;;;;;2.85;2.35;;;;;;;4.71;100.00;98951.09;4157916;28;20041;-69
2023/06/05 03:08:56;;;;;;;4.28;2.40;;;;;;;4.74;100.00;98953.22;4158043;28;20379;-69
2023/06/05 03:10:57;;;;;;;3.70;2.22;;;;;;;4.80;100.00;98946.41;4158440;28;20128;-69
2023/06/05 03:12:57;;;;;;;4.15;2.50;;;;;;;4.84;100.00;98947.34;4157520;28;20080;-69
2023/06/05 03:14:57;;;;;;;4.93;2.67;;;;;;;4.84;100.00;98952.03;4158287;28;20042;-69
2023/06/05 03:16:59;;;;;;;5.13;2.47;;;;;;;4.87;100.00;98951.38;4158473;28;20133;-69
2023/06/05 03:19:00;;;;;;;3.80;2.35;;;;;;;4.84;100.00;98955.59;4157915;28;20049;-69
2023/06/05 03:21:01;;;;;;;3.75;2.70;;;;;;;4.83;100.00;98953.19;4158094;28;20453;-69
2023/06/05 03:23:01;;;;;;;5.00;2.58;;;;;;;4.84;100.00;98952.03;4157852;28;20080;-69
2023/06/05 03:25:02;;;;;;;4.35;2.40;;;;;;;4.85;100.00;98956.38;4158176;28;20041;-69
2023/06/05 03:27:04;;;;;;;4.47;2.30;;;;;;;4.81;100.00;98963.66;4157433;28;20048;-68
2023/06/05 03:29:05;;;;;;;3.40;2.50;;;;;;;4.72;100.00;98966.44;4158597;28;20069;-69
2023/06/05 03:31:05;;;;;;;4.70;2.80;;;;;;;4.61;100.00;98965.16;4159473;28;20374;-69
2023/06/05 03:33:06;;;;;;;4.00;2.58;;;;;;;4.54;100.00;98959.38;4157085;28;20127;-69
2023/06/05 03:35:07;;;;;;;2.83;2.00;;;;;;;4.48;100.00;98961.50;4158239;28;20045;-69
2023/06/05 03:37:07;;;;;;;4.70;2.45;;;;;;;4.52;100.00;98962.44;4157965;28;20048;-69
2023/06/05 03:39:08;;;;;;;3.85;2.38;;;;;;;4.49;100.00;98966.66;4158092;28;20136;-69
2023/06/05 03:41:08;;;;;;;5.00;2.60;;;;;;;4.50;100.00;98962.78;4158068;28;20077;-69
2023/06/05 03:43:08;;;;;;;5.72;2.47;;;;;;;4.49;100.00;98965.84;4156730;28;20048;-69
2023/06/05 03:45:09;;;;;;;3.92;2.20;;;;;;;4.51;100.00;98966.31;4158582;28;20124;-69
2023/06/05 03:47:10;;;;;;;3.67;2.40;;;;;;;4.53;100.00;98964.06;4158816;28;20543;-68
2023/06/05 03:49:10;;;;;;;4.95;2.60;;;;;;;4.53;100.00;98960.50;4157414;28;20179;-69
2023/06/05 03:51:11;;;;;;;3.53;1.90;;;;;;;4.53;100.00;98966.78;4158112;28;20406;-69
2023/06/05 03:53:13;;;;;;;4.47;2.35;;;;;;;4.56;100.00;98957.13;4157050;28;20056;-69
2023/06/05 03:55:13;;;;;;;3.30;2.42;;;;;;;4.62;100.00;98953.88;4157936;28;20458;-69
2023/06/05 03:57:14;;;;;;;2.78;2.30;;;;;;;4.64;100.00;98953.56;4157586;28;20044;-69
2023/06/05 03:59:19;;;;;;;4.90;2.30;;;;;;;4.66;100.00;98956.78;4154630;28;20097;-69
2023/06/05 04:01:19;;;;;;;3.88;2.40;;;;;;;4.70;100.00;98958.53;4156669;28;20492;-68
2023/06/05 04:03:20;;;;;;;7.88;3.78;;;;;;;4.72;100.00;98958.22;4156878;28;20061;-68
2023/06/05 04:05:20;;;;;;;4.93;2.50;;;;;;;4.78;100.00;98962.38;4156610;28;20045;-69
2023/06/05 04:07:21;;;;;;;3.75;2.30;;;;;;;4.84;100.00;98960.25;4157592;28;20077;-69
2023/06/05 04:09:21;;;;;;;2.83;2.53;;;;;;;4.88;100.00;98961.19;4155246;28;20765;-68
2023/06/05 04:11:22;;;;;;;3.10;2.20;;;;;;;4.91;100.00;98964.09;4155946;28;20140;-69
2023/06/05 04:13:22;;;;;;;3.20;2.38;;;;;;;4.97;100.00;98959.25;4156449;28;20386;-69
2023/06/05 04:15:23;;;;;;;3.92;2.25;;;;;;;5.03;100.00;98963.41;4157722;28;20049;-68
2023/06/05 04:17:23;;;;;;;7.60;3.05;;;;;;;5.07;100.00;98962.44;4157750;28;20042;-69
2023/06/05 04:19:24;;;;;;;7.47;3.25;;;;;;;5.15;100.00;98969.00;4157630;28;20416;-69
2023/06/05 04:21:24;;;;;;;5.93;2.83;;;;;;;5.24;100.00;98968.97;4157826;28;20046;-68
2023/06/05 04:23:24;;;;;;;9.98;2.90;;;;;;;5.35;100.00;98972.94;4157882;28;20054;-69
2023/06/05 04:25:28;;;;;;;11.57;3.00;;;;;;;5.50;100.00;98974.31;4160340;28;20052;-69
2023/06/05 04:27:29;;;;;;;6.85;3.03;;;;;;;5.66;100.00;98971.78;4161168;28;20077;-69
2023/06/05 04:29:32;;;;;;;7.45;2.70;;;;;;;5.80;100.00;98975.09;4160891;28;20093;-69
2023/06/05 04:31:34;;;;;;;7.65;2.65;;;;;;;5.94;100.00;98972.06;4160366;28;20515;-68
2023/06/05 04:33:34;;;;;;;10.55;3.15;;;;;;;6.02;100.00;98976.69;4160176;28;20049;-69
2023/06/05 04:35:34;;;;;;;5.53;2.30;;;;;;;6.06;100.00;98972.16;4162815;28;20049;-68
2023/06/05 04:37:37;;;;;;;4.97;3.22;;;;;;;6.12;100.00;98977.13;4162741;28;20044;-69
2023/06/05 04:39:37;;;;;;;5.38;3.05;;;;;;;6.15;100.00;98973.69;4161306;28;20822;-69
2023/06/05 04:41:44;;;;;;;7.93;2.90;;;;;;;6.24;100.00;98983.78;4160745;28;20044;-69
2023/06/05 04:43:45;;;;;;;3.80;2.58;;;;;;;6.29;100.00;98981.66;4159951;28;20034;-69
2023/06/05 04:45:45;;;;;;;3.78;2.58;;;;;;;6.39;100.00;98978.47;4162975;28;20349;-69
2023/06/05 04:47:46;;;;;;;4.10;2.70;;;;;;;6.48;100.00;98979.19;4160520;28;20132;-69
2023/06/05 04:49:49;;;;;;;4.57;2.78;;;;;;;6.58;100.00;98979.91;4160261;28;20385;-69
2023/06/05 04:51:49;;;;;;;7.60;3.47;;;;;;;6.67;100.00;98975.13;4160336;28;20197;-68
2023/06/05 04:53:50;;;;;;;6.93;3.72;;;;;;;6.74;100.00;98973.41;4159868;28;20132;-69
2023/06/05 04:55:50;;;;;;;4.85;2.97;;;;;;;6.86;100.00;98975.38;4159825;28;20757;-69
2023/06/05 04:57:51;;;;;;;7.03;2.80;;;;;;;7.00;100.00;98980.56;4159640;28;20144;-69
2023/06/05 04:59:52;;;;;;;5.20;3.20;;;;;;;7.12;100.00;98971.53;4160793;28;20034;-69
2023/06/05 05:01:54;;;;;;;5.32;3.05;;;;;;;7.21;100.00;98975.78;4159990;28;20081;-69
2023/06/05 05:03:54;;;;;;;8.25;3.33;;;;;;;7.33;100.00;98970.25;4159615;28;20040;-69
2023/06/05 05:05:55;;;;;;;5.53;3.03;;;;;;;7.42;100.00;98972.09;4159990;28;20034;-69
2023/06/05 05:07:55;;;;;;;6.53;2.75;;;;;;;7.50;100.00;98974.72;4130642;28;20496;-69
2023/06/05 05:09:55;;;;;;;4.22;2.75;;;;;;;7.64;100.00;98968.06;4162763;28;20367;-69
2023/06/05 05:11:57;;;;;;;6.60;2.95;;;;;;;7.76;100.00;98973.53;4143524;28;20059;-69
2023/06/05 05:13:57;;;;;;;8.40;3.53;;;;;;;7.87;100.00;98975.50;4143321;28;20112;-69
2023/06/05 05:15:57;;;;;;;3.97;2.88;;;;;;;7.96;100.00;98977.31;4143124;28;20065;-69
2023/06/05 05:17:58;;;;;;;8.40;3.05;;;;;;;8.04;100.00;98970.84;4143656;28;20382;-69
2023/06/05 05:19:58;;;;;;;8.00;3.00;;;;;;;8.13;100.00;98968.75;4143603;28;20046;-69
2023/06/05 05:21:59;;;;;;;4.97;3.00;;;;;;;8.22;100.00;98974.91;4143584;28;20038;-69
2023/06/05 05:24:00;;;;;;;11.13;3.90;;;;;;;8.29;100.00;98979.84;4141284;28;20137;-69
2023/06/05 05:26:01;;;;;;;8.93;3.20;;;;;;;8.35;100.00;98972.94;4145110;28;20033;-69
2023/06/05 05:28:02;;;;;;;7.28;3.17;;;;;;;8.41;100.00;98974.28;4143164;28;20042;-70
2023/06/05 05:30:02;;;;;;;7.90;3.67;;;;;;;8.48;100.00;98982.78;4137535;28;20026;-69
2023/06/05 05:32:03;;;;;;;12.30;3.42;;;;;;;8.54;100.00;98975.84;4142377;28;20502;-69
2023/06/05 05:34:03;;;;;;;6.95;2.72;;;;;;;8.66;100.00;98984.06;4134060;28;20041;-69
2023/06/05 05:36:04;;;;;;;6.57;3.28;;;;;;;8.73;100.00;98983.44;4135327;28;20093;-69
2023/06/05 05:38:04;;;;;;;6.07;3.50;;;;;;;8.81;100.00;98974.19;4135735;28;20716;-69
2023/06/05 05:40:06;;;;;;;10.18;2.90;;;;;;;8.92;100.00;98978.03;4137803;28;20536;-69
2023/06/05 05:42:07;;;;;;;8.13;2.92;;;;;;;9.00;100.00;98985.34;4135310;28;20038;-69
2023/06/05 05:44:07;;;;;;;5.90;3.20;;;;;;;9.06;100.00;98974.03;4135868;28;20030;-69
2023/06/05 05:46:07;;;;;;;6.68;2.80;;;;;;;9.15;100.00;98980.19;4138248;28;20033;-69
2023/06/05 05:48:08;;;;;;;5.70;2.92;;;;;;;9.23;100.00;98981.97;4136233;28;20507;-69
2023/06/05 05:50:08;;;;;;;4.50;2.95;;;;;;;9.27;100.00;98975.38;4143244;28;20026;-69
2023/06/05 05:52:09;;;;;;;6.13;2.85;;;;;;;9.31;100.00;98992.03;4149516;28;20053;-69
2023/06/05 05:54:09;;;;;;;3.50;2.75;;;;;;;9.36;100.00;98977.16;4147750;28;20037;-69
2023/06/05 05:56:10;;;;;;;4.53;3.08;;;;;;;9.44;100.00;98976.97;4158601;28;20047;-69
2023/06/05 05:58:10;;;;;;;8.70;3.00;;;;;;;9.57;100.00;98983.19;4158736;28;20029;-69
2023/06/05 06:00:12;;;;;;;6.13;2.80;;;;;;;9.67;100.00;98990.09;4160884;28;20145;-69
2023/06/05 06:02:12;;;;;;;7.45;3.40;;;;;;;9.80;100.00;98983.31;4159482;28;20104;-69
2023/06/05 06:04:13;;;;;;;7.13;2.80;;;;;;;9.93;100.00;98990.34;4157652;28;20064;-69
2023/06/05 06:06:13;;;;;;;8.65;3.33;;;;;;;10.02;100.00;98992.91;4161627;28;20421;-69
2023/06/05 06:08:13;;;;;;;7.47;3.20;;;;;;;10.13;100.00;98985.63;4157002;28;20111;-69
2023/06/05 06:10:14;;;;;;;4.32;2.80;;;;;;;10.21;98.28;98981.03;4158368;28;20523;-69
2023/06/05 06:12:15;;;;;;;4.60;2.30;;;;;;;10.30;95.43;98987.97;4157828;28;20542;-69
2023/06/05 06:14:15;;;;;;;9.68;2.83;;;;;;;10.42;98.44;98981.50;4158450;28;20575;-69
2023/06/05 06:16:16;;;;;;;7.03;2.80;;;;;;;10.51;97.43;98976.56;4158768;28;20443;-69
2023/06/05 06:18:16;;;;;;;8.23;3.20;;;;;;;10.63;95.83;98984.69;4158676;28;20642;-69
2023/06/05 06:20:17;;;;;;;8.30;3.72;;;;;;;10.74;93.94;98976.59;4158711;28;20053;-69
2023/06/05 06:22:17;;;;;;;8.80;3.35;;;;;;;10.84;94.32;98987.06;4158473;28;20021;-69
2023/06/05 06:24:20;;;;;;;10.30;3.40;;;;;;;10.99;93.15;98985.34;4158203;28;20067;-69
2023/06/05 06:26:21;;;;;;;;;;;;;;;11.09;90.22;98981.97;4158476;28;20033;-69
2023/06/05 06:28:21;;;;;;;7.30;3.00;;;;;;;11.23;90.64;98978.63;4158362;28;19925;-69
2023/06/05 06:30:21;;;;;;;6.40;2.85;;;;;;;11.35;90.13;98978.47;4158685;28;20038;-69
2023/06/05 06:32:23;;;;;;;7.63;3.08;;;;;;;11.42;90.71;98974.97;4158444;28;20355;-69
2023/06/05 06:34:24;;;;;;;4.20;2.60;;;;;;;11.48;89.82;98973.50;4158314;28;20037;-69
2023/06/05 06:36:26;;;;;;;7.03;3.03;;;;;;;11.60;91.04;98973.31;4158337;28;20351;-69
2023/06/05 06:38:30;;;;;;;6.90;3.10;;;;;;;11.69;89.49;98970.28;4156331;28;20472;-69
2023/06/05 06:40:30;;;;;;;4.45;2.90;;;;;;;11.78;90.29;98979.91;4157467;28;20041;-69
2023/06/05 06:42:30;;;;;;;5.15;3.47;;;;;;;11.87;85.13;98982.44;4157312;28;20079;-69
2023/06/05 06:44:31;;;;;;;8.82;3.33;;;;;;;11.96;86.63;98993.25;4154151;28;20374;-69
2023/06/05 06:46:31;;;;;;;5.13;2.97;;;;;;;12.05;86.60;98985.47;4157228;28;20037;-69
2023/06/05 06:48:32;;;;;;;5.40;3.20;;;;;;;12.14;88.14;98990.72;4157923;28;20561;-69
2023/06/05 06:50:32;;;;;;;8.50;3.72;;;;;;;12.21;87.50;98982.50;4157872;28;20037;-69
2023/06/05 06:52:33;;;;;;;11.00;3.40;;;;;;;12.37;88.88;98988.66;4157304;28;20115;-69
2023/06/05 06:54:33;;;;;;;7.13;3.30;;;;;;;12.45;86.91;98990.34;4157313;28;20102;-69
2023/06/05 06:56:33;;;;;;;7.28;3.40;;;;;;;12.54;87.40;98984.50;4157353;28;20061;-69
2023/06/05 06:58:34;;;;;;;5.18;3.40;;;;;;;12.58;87.42;98982.56;4157715;28;20385;-69
2023/06/05 07:00:34;;;;;;;5.45;3.53;;;;;;;12.72;87.33;98979.13;4156848;28;20060;-69
2023/06/05 07:02:36;;;;;;;9.02;3.45;;;;;;;12.81;86.93;98977.66;4157463;28;20071;-69
2023/06/05 07:04:38;;;;;;;4.40;3.25;;;;;;;12.92;87.65;98981.34;4158433;28;20651;-69
2023/06/05 07:06:38;;;;;;;9.63;4.00;;;;;;;13.07;86.88;98984.25;4156970;28;20047;-69
2023/06/05 07:08:38;;;;;;;6.38;3.50;;;;;;;13.22;84.38;98986.00;4157543;28;20409;-69
2023/06/05 07:10:40;;;;;;;9.02;3.20;;;;;;;13.31;84.65;98975.38;4149659;28;20434;-69
2023/06/05 07:12:40;;;;;;;4.47;3.03;;;;;;;13.41;84.90;98980.25;4154473;28;20069;-69
2023/06/05 07:14:41;;;;;;;5.85;3.92;;;;;;;13.54;83.38;98979.94;4156818;28;20083;-69
2023/06/05 07:16:41;;;;;;;5.63;4.20;;;;;;;13.66;80.74;98979.63;4155702;28;20045;-69
2023/06/05 07:18:42;;;;;;;5.53;3.40;;;;;;;13.76;81.50;98976.91;4156704;28;20061;-69
2023/06/05 07:20:42;;;;;;;7.10;3.38;;;;;;;13.86;81.77;98978.16;4157250;28;20142;-69
2023/06/05 07:22:45;;;;;;;5.47;3.85;;;;;;;13.98;81.71;98980.63;4157050;28;20454;-69
2023/06/05 07:24:45;;;;;;;;;;;;;;;14.08;82.31;98976.31;4158156;28;20454;-69
2023/06/05 07:26:45;;;;;;;5.82;3.70;;;;;;;14.23;80.79;98974.38;4157655;28;19917;-69
2023/06/05 07:28:49;;;;;;;4.63;3.42;;;;;;;14.29;80.36;98972.81;4156904;28;20068;-69
2023/06/05 07:30:50;;;;;;;6.38;3.92;;;;;;;14.38;81.25;98975.25;4156811;28;20029;-69
2023/06/05 07:32:50;;;;;;;6.72;3.67;;;;;;;14.51;80.53;98977.34;4156579;28;20492;-69
2023/06/05 07:34:51;;;;;;;6.13;3.60;;;;;;;14.63;79.23;98967.81;4157678;28;20118;-69
2023/06/05 07:36:52;;;;;;;7.43;3.20;;;;;;;14.69;80.25;98963.47;4157301;28;20092;-69
2023/06/05 07:38:53;;;;;;;5.22;3.47;;;;;;;14.76;81.08;98965.47;4121070;28;20033;-69
2023/06/05 07:40:53;;;;;;;5.40;3.65;;;;;;;14.90;80.49;98962.72;4157019;28;20375;-69
2023/06/05 07:42:54;;;;;;;5.57;3.38;;;;;;;15.02;80.35;98962.34;4156469;28;20051;-69
2023/06/05 07:44:54;;;;;;;4.53;3.00;;;;;;;15.11;79.46;98965.53;4156996;28;20079;-69
2023/06/05 07:46:54;;;;;;;6.30;3.58;;;;;;;15.20;79.07;98956.78;4157544;28;20136;-69
2023/06/05 07:48:55;;;;;;;4.60;3.22;;;;;;;15.29;79.66;98962.75;4155551;28;20048;-69
2023/06/05 07:50:55;;;;;;;5.25;3.40;;;;;;;15.31;76.26;98957.59;4157503;28;20041;-69
2023/06/05 07:52:55;;;;;;;5.07;3.22;;;;;;;15.37;75.63;98949.59;4156501;28;20065;-69
2023/06/05 07:54:56;;;;;;;8.27;3.45;;;;;;;15.41;75.75;98948.44;4157616;28;20148;-69
2023/06/05 07:56:57;;;;;;;3.90;2.97;;;;;;;15.45;78.13;98952.00;4157273;28;20474;-69
2023/06/05 07:58:57;;;;;;;3.95;3.13;;;;;;;15.64;77.07;98953.63;4156644;28;20045;-69
2023/06/05 08:00:58;;;;;;;4.32;3.13;;;;;;;15.75;76.96;98947.22;4157430;28;20463;-69
2023/06/05 08:02:59;;;;;;;4.15;3.15;;;;;;;15.93;78.34;98954.34;4154903;28;20563;-69
2023/06/05 08:05:00;;;;;;;6.07;3.72;;;;;;;16.05;78.77;98944.75;4156566;28;20041;-69
2023/06/05 08:07:01;;;;;;;4.65;2.95;;;;;;;16.20;76.78;98949.06;4157079;28;20710;-69
2023/06/05 08:09:01;;;;;;;6.53;3.17;;;;;;;16.28;73.98;98947.84;4157520;28;20092;-69
2023/06/05 08:11:02;;;;;;;8.27;3.13;;;;;;;16.34;73.07;98945.44;4157525;28;20057;-69
2023/06/05 08:13:02;;;;;;;3.33;2.72;;;;;;;16.44;71.09;98947.38;4156207;28;20057;-69
2023/06/05 08:15:03;;;;;;;4.35;2.38;;;;;;;16.58;71.12;98949.31;4157679;28;20046;-69
2023/06/05 08:17:04;;;;;;;7.18;2.95;;;;;;;16.59;69.99;98948.13;4157060;28;20107;-69
2023/06/05 08:19:05;;;;;;;5.40;2.88;;;;;;;16.62;70.20;98943.72;4147426;28;20045;-70
2023/06/05 08:21:06;;;;;;;4.68;2.25;;;;;;;16.80;70.50;98939.66;4153621;28;20154;-69
2023/06/05 08:23:06;;;;;;;5.07;2.45;;;;;;;16.90;68.00;98938.00;4156014;28;20045;-70
2023/06/05 08:25:06;;;;;;;6.78;2.97;;;;;;;16.99;71.75;98941.13;4157067;28;20045;-69
2023/06/05 08:27:07;;;;;;;8.32;3.15;;;;;;;17.02;69.32;98937.50;4156741;28;20103;-69
2023/06/05 08:29:08;;;;;;;7.78;3.10;;;;;;;16.99;68.60;98932.75;4155481;28;20621;-69
2023/06/05 08:31:09;;;;;;;5.50;2.80;;;;;;;16.96;70.28;98939.13;4157090;28;20466;-69
2023/06/05 08:33:09;;;;;;;2.65;2.08;;;;;;;17.04;69.46;98935.09;4155855;28;20136;-69
2023/06/05 08:35:12;;;;;;;3.65;2.13;;;;;;;17.11;64.84;98937.03;4157418;28;20576;-70
2023/06/05 08:37:12;;;;;;;3.20;2.47;;;;;;;17.08;65.49;98935.06;4157063;28;20099;-70
2023/06/05 08:39:13;;;;;;;3.70;2.42;;;;;;;17.13;66.40;98932.66;4155382;28;20049;-70
2023/06/05 08:41:16;;;;;;;5.80;3.00;;;;;;;17.19;65.57;98935.78;4155518;28;20037;-70
2023/06/05 08:43:16;;;;;;;;;;;;;;;17.25;66.12;98936.94;4156526;28;20128;-70
2023/06/05 08:45:16;;;;;;;4.57;2.65;;;;;;;17.33;67.66;98932.09;4156608;28;20018;-70
2023/06/05 08:47:17;;;;;;;6.60;2.80;;;;;;;17.42;65.65;98936.00;4156857;28;20386;-70
2023/06/05 08:49:21;;;;;;;6.18;2.55;;;;;;;17.41;67.07;98928.00;4156458;28;20129;-70
2023/06/05 08:51:22;;;;;;;4.63;2.90;;;;;;;17.38;65.55;98934.44;4157116;28;20038;-70
2023/06/05 08:53:25;;;;;;;4.57;2.88;;;;;;;17.34;66.07;98937.25;4156206;28;20484;-70
2023/06/05 08:55:29;;;;;;;4.25;2.53;;;;;;;17.25;65.90;98930.56;4155908;28;20132;-70
2023/06/05 08:57:30;;;;;;;6.25;2.50;;;;;;;17.28;66.33;98936.09;4156073;28;20124;-70
2023/06/05 08:59:31;;;;;;;4.68;2.70;;;;;;;17.28;65.93;98935.31;4156608;28;20076;-70
2023/06/05 09:01:32;;;;;;;4.03;2.83;;;;;;;17.32;66.81;98934.09;4156678;28;20069;-70
2023/06/05 09:03:33;;;;;;;5.93;2.88;;;;;;;17.35;64.92;98929.66;4155674;28;20433;-70
2023/06/05 09:05:33;;;;;;;5.55;2.47;;;;;;;17.27;65.72;98928.13;4156503;28;20369;-70
2023/06/05 09:07:34;;;;;;;4.93;2.60;;;;;;;17.21;66.85;98926.97;4156595;28;20049;-70
2023/06/05 09:09:34;;;;;;;4.95;3.03;;;;;;;17.18;66.78;98923.00;4156949;28;20137;-70
2023/06/05 09:11:36;;;;;;;6.65;3.08;;;;;;;17.12;66.80;98931.03;4159714;28;20037;-70
2023/06/05 09:13:48;;;;;;;5.22;3.05;;;;;;;16.99;67.98;98931.94;4159108;28;20052;-70
2023/06/05 09:15:50;;;;;;;10.90;3.10;;;;;;;16.91;68.79;98936.00;4158331;28;20152;-70
2023/06/05 09:18:07;;;;;;;7.22;3.10;;;;;;;16.92;68.41;98938.38;4159813;28;20033;-70
2023/06/05 09:20:23;;;;;;;5.22;3.00;;;;;;;17.09;67.74;98926.28;4158750;28;20152;-70
2023/06/05 09:22:34;;;;;;;9.10;3.20;;;;;;;17.36;68.76;98922.84;4155650;28;20060;-70
2023/06/05 09:24:35;;;;;;;5.47;2.60;;;;;;;17.62;70.30;98924.22;4159071;28;20486;-70
2023/06/05 09:27:04;;;;;;;5.35;2.88;;;;;;;17.93;68.47;98928.72;4159979;28;20205;-70
2023/06/05 09:29:05;;;;;;;6.95;2.88;;;;;;;18.09;64.99;98921.75;4159108;28;20328;-70
2023/06/05 09:31:05;;;;;;;6.95;2.97;;;;;;;18.28;66.57;98923.13;4159377;28;20044;-70